• Join FlightAware (Why Join?)
  • Login
  • US Flag 
01:06AM EDT


 

Airport Tracker/Info


-or-


 

Live Flight TrackerFlight Track Log ✈ FSR411 ✈ 29-Oct-2013 ✈ KCPS - KGBG

Flight Track Log - Related Links

Times and Time Zones

All times are in EDT time to prevent confusion due to time zone crossing. See the FSR411 flight status page for this flight to view local times or setup timezone preferences in your user account.

Time Position Orientation Groundspeed Altitude Reporting Facility
EDT Latitude Longitude Course Direction KTS MPH feet Rate Location/Type
07:09AM 38.5333 -90.0833 93° East 225 259 2,800  Level Gateway (St. Louis) TRACON
07:10AM 38.5306 -90.0186 93° East 270 311 3,300 1,800 Climbing Kansas City Center
07:11AM 38.5975 -90.0058 North 256 295 6,100 3,060 Climbing Kansas City Center
07:12AM 38.6728 -90.0278 347° North 269 310 9,500 3,300 Climbing Kansas City Center
07:13AM 38.7517 -90.0542 345° North 288 331 12,800 2,160 Climbing Kansas City Center
07:14AM 38.8536 -90.0867 346° North 371 427 13,900 540 Climbing Kansas City Center
07:15AM 38.9619 -90.1200 347° North 397 457 14,000  Climbing Kansas City Center
07:16AM 39.0694 -90.1531 347° North 401 461 14,000  Level Kansas City Center
07:17AM 39.1742 -90.1861 346° North 394 453 14,000  Level Kansas City Center
07:18AM 39.2761 -90.2192 346° North 384 442 14,000  Level Kansas City Center
07:19AM 39.3992 -90.2572 347° North 381 438 14,000  Level Kansas City Center
07:20AM 39.5003 -90.2914 345° North 378 435 14,000  Level Kansas City Center
07:21AM 39.6014 -90.3211 347° North 376 433 14,000  Level Kansas City Center
07:22AM 39.7017 -90.3542 346° North 374 430 14,000  Level Kansas City Center
07:23AM 39.7917 -90.3839 346° North 375 432 14,000  Level Kansas City Center
07:24AM 39.8936 -90.4161 346° North 375 432 14,000  Level Kansas City Center
07:25AM 39.9953 -90.4492 346° North 375 432 14,000  Level Kansas City Center
07:26AM 40.0972 -90.4831 346° North 376 433 14,000 -300 Level Kansas City Center
07:27AM 40.1972 -90.5156 346° North 371 427 13,500 -1,200 Descending Kansas City Center
07:28AM 40.2900 -90.5278 354° North 346 398 11,700 -2,040 Descending Kansas City Center
07:29AM 40.3925 -90.5100 North 315 362 9,500 -1,860 Descending Kansas City Center
07:30AM 40.4767 -90.5178 356° North 303 349 8,000 -1,560 Descending Kansas City Center
07:31AM 40.5608 -90.5311 353° North 305 351 6,400 -1,560 Descending Kansas City Center
07:32AM 40.6431 -90.5444 353° North 300 345 4,800 -1,560 Descending Chicago Center
07:33AM 40.7206 -90.5547 354° North 290 334 3,200 -900 Descending Chicago Center
07:34AM 40.7897 -90.5389 10° North 272 313 3,000 -180 Descending Chicago Center
07:35AM 40.8536 -90.4906 30° Northeast 253 291 2,900 -720 Descending Chicago Center
07:37AM 40.9206 -90.4444 27° Northeast 163 188 1,000 -1,020 Descending Kansas City Center